Time;durP1;ratioP1;P1;durP2;ratioP2;P2;SDS_P1;SDS_P2;PMS_P1;PMS_P2;Temp;Humidity;BMP_temperature;BMP_pressure;BME280_temperature;BME280_humidity;BME280_pressure;Samples;Min_cycle;Max_cycle;Signal;HPM_P1;HPM_P2
2021/11/07 00:01:52;;;;;;;4.43;4.22;;;10.50;72.40;;;;;;4960002;28;20514;-89
2021/11/07 00:09:38;;;;;;;5.40;5.00;;;10.50;72.40;;;;;;4970550;28;20054;-89
2021/11/07 00:12:29;;;;;;;4.88;4.60;;;10.50;72.40;;;;;;4974203;28;20034;-89
2021/11/07 00:14:52;;;;;;;8.45;4.72;;;10.50;73.30;;;;;;4975175;28;20043;-88
2021/11/07 00:17:20;;;;;;;4.40;4.20;;;10.50;72.50;;;;;;4971374;28;20050;-89
2021/11/07 00:19:50;;;;;;;4.63;4.43;;;10.50;72.50;;;;;;4973292;28;20483;-88
2021/11/07 00:22:48;;;;;;;5.10;4.80;;;10.50;72.50;;;;;;4974397;28;20057;-88
2021/11/07 00:27:48;;;;;;;4.40;4.20;;;10.50;72.50;;;;;;4975434;28;20041;-88
2021/11/07 00:38:14;;;;;;;4.75;4.35;;;10.50;72.50;;;;;;4973793;28;20150;-88
2021/11/07 00:41:13;;;;;;;4.45;4.25;;;10.60;72.60;;;;;;4971659;28;20035;-88
2021/11/07 00:43:51;;;;;;;5.22;4.93;;;10.60;72.60;;;;;;4970212;28;20507;-88
2021/11/07 00:46:24;;;;;;;4.88;4.57;;;10.60;72.60;;;;;;4971898;28;20050;-88
2021/11/07 00:48:57;;;;;;;4.28;4.07;;;10.60;72.60;;;;;;4971194;28;20023;-88
2021/11/07 00:56:39;;;;;;;5.10;4.57;;;10.60;72.60;;;;;;4977470;28;20050;-89
2021/11/07 01:01:38;;;;;;;4.18;3.97;;;10.60;72.60;;;;;;4972380;28;20388;-89
2021/11/07 01:04:05;;;;;;;4.53;4.32;;;10.60;72.70;;;;;;4971507;28;20035;-89
2021/11/07 01:06:32;;;;;;;4.25;4.05;;;10.60;72.70;;;;;;4971093;28;20038;-87
2021/11/07 01:08:58;;;;;;;4.82;4.55;;;10.60;73.50;;;;;;4974774;28;20559;-87
2021/11/07 01:11:24;;;;;;;4.90;4.68;;;10.60;72.70;;;;;;4956930;28;20051;-87
2021/11/07 01:13:50;;;;;;;5.40;5.07;;;10.60;72.80;;;;;;4970002;28;20042;-88
2021/11/07 01:16:16;;;;;;;4.20;4.00;;;10.60;72.80;;;;;;4974186;28;20057;-88
2021/11/07 01:18:43;;;;;;;4.95;4.72;;;10.50;72.90;;;;;;4970764;28;20023;-88
2021/11/07 01:21:12;;;;;;;4.38;4.18;;;10.50;72.80;;;;;;4989908;28;20031;-88
2021/11/07 01:23:46;;;;;;;4.60;4.40;;;10.50;72.90;;;;;;4970169;28;20043;-89
2021/11/07 01:26:34;;;;;;;5.05;4.75;;;10.50;73.00;;;;;;4972212;28;20380;-88
2021/11/07 01:29:46;;;;;;;5.82;5.43;;;10.50;73.10;;;;;;4971735;28;20050;-88
2021/11/07 01:31:50;;;;;;;4.75;4.47;;;10.40;73.10;;;;;;4971200;28;20034;-88
2021/11/07 01:34:24;;;;;;;5.30;5.00;;;10.40;73.20;;;;;;4972160;28;20495;-88
2021/11/07 01:37:00;;;;;;;4.82;4.55;;;10.40;73.20;;;;;;4971728;28;20055;-88
2021/11/07 01:44:48;;;;;;;4.32;4.13;;;10.30;73.40;;;;;;4980202;28;20502;-89
2021/11/07 01:47:15;;;;;;;4.20;4.00;;;10.30;73.50;;;;;;4971407;28;20042;-88
2021/11/07 01:49:42;;;;;;;4.35;4.15;;;10.30;73.50;;;;;;4957886;28;20038;-88
2021/11/07 01:52:09;;;;;;;4.75;4.32;;;10.20;73.40;;;;;;4951690;28;20046;-88
2021/11/07 01:54:52;;;;;;;4.18;3.97;;;10.20;73.40;;;;;;4970579;28;20035;-88
2021/11/07 01:57:29;;;;;;;4.38;4.18;;;10.20;73.50;;;;;;4970184;28;20651;-87
2021/11/07 01:59:57;;;;;;;5.05;4.75;;;10.20;73.50;;;;;;4976696;28;20049;-88
2021/11/07 02:02:24;;;;;;;4.13;3.92;;;10.20;73.40;;;;;;4969143;28;20027;-87
2021/11/07 02:04:50;;;;;;;4.75;4.47;;;10.20;73.50;;;;;;4970562;28;20037;-88
2021/11/07 02:07:17;;;;;;;4.30;4.10;;;10.30;73.50;;;;;;4970962;28;20050;-87
2021/11/07 02:09:43;;;;;;;4.55;4.35;;;10.30;73.50;;;;;;4970341;28;20038;-88
2021/11/07 02:12:09;;;;;;;5.00;4.60;;;10.20;73.40;;;;;;4969835;28;20035;-88
2021/11/07 02:14:36;;;;;;;4.10;3.90;;;10.30;73.50;;;;;;4967190;28;20031;-88
2021/11/07 02:17:02;;;;;;;8.25;4.55;;;10.30;73.40;;;;;;4969138;28;20046;-87
2021/11/07 02:19:28;;;;;;;5.22;4.28;;;10.30;73.40;;;;;;4966802;28;20515;-88
2021/11/07 02:21:54;;;;;;;5.20;4.80;;;10.30;73.40;;;;;;4985710;28;20043;-88
2021/11/07 02:24:21;;;;;;;7.05;5.28;;;10.30;73.40;;;;;;4971050;28;20090;-89
2021/11/07 02:26:55;;;;;;;4.45;4.20;;;10.30;73.40;;;;;;4973175;28;20043;-87
2021/11/07 02:29:22;;;;;;;4.10;3.90;;;10.30;73.40;;;;;;4986450;28;20045;-88
2021/11/07 02:31:49;;;;;;;4.70;4.40;;;10.30;73.40;;;;;;4968268;28;20035;-88
2021/11/07 02:34:15;;;;;;;5.22;4.93;;;10.30;73.40;;;;;;4970572;28;20050;-88
2021/11/07 02:36:42;;;;;;;4.15;3.95;;;10.40;73.40;;;;;;4967286;28;20515;-88
2021/11/07 02:39:10;;;;;;;4.25;3.95;;;10.40;73.40;;;;;;4969992;28;20030;-88
2021/11/07 02:41:36;;;;;;;4.60;4.40;;;10.40;73.40;;;;;;4976100;28;20026;-88
2021/11/07 02:44:03;;;;;;;4.28;4.07;;;10.40;73.40;;;;;;4982102;28;20037;-87
2021/11/07 02:46:29;;;;;;;4.88;4.40;;;10.40;73.40;;;;;;4976334;28;20042;-88
2021/11/07 02:48:57;;;;;;;4.57;4.30;;;10.40;73.40;;;;;;4972169;28;20030;-88
2021/11/07 02:51:31;;;;;;;4.47;4.28;;;10.40;73.50;;;;;;4967714;28;20042;-88
2021/11/07 02:53:58;;;;;;;4.57;4.30;;;10.40;73.50;;;;;;4978381;28;20046;-86
2021/11/07 02:56:24;;;;;;;3.92;3.72;;;10.40;73.50;;;;;;4970107;28;20042;-87
2021/11/07 02:58:50;;;;;;;5.28;4.97;;;10.40;73.50;;;;;;4973836;28;20045;-89
2021/11/07 03:01:23;;;;;;;4.38;4.18;;;10.40;73.50;;;;;;4952699;28;20027;-88
2021/11/07 03:03:50;;;;;;;4.32;4.13;;;10.40;73.60;;;;;;4965703;28;20365;-88
2021/11/07 03:06:16;;;;;;;4.25;4.05;;;10.40;73.50;;;;;;4964744;28;20107;-88
2021/11/07 03:08:43;;;;;;;5.05;4.75;;;10.40;73.60;;;;;;4969662;28;20049;-88
2021/11/07 03:11:11;;;;;;;6.03;4.25;;;10.40;73.60;;;;;;4968113;28;20038;-87
2021/11/07 03:13:37;;;;;;;4.78;4.22;;;10.40;73.60;;;;;;4966726;28;20039;-88
2021/11/07 03:16:07;;;;;;;4.15;3.95;;;10.40;73.60;;;;;;4967863;28;20043;-88
2021/11/07 03:18:35;;;;;;;17.20;4.22;;;10.40;73.60;;;;;;4949056;28;20511;-88
2021/11/07 03:21:03;;;;;;;4.50;4.25;;;10.40;73.60;;;;;;4971599;28;20027;-88
2021/11/07 03:23:30;;;;;;;4.10;3.90;;;10.40;73.60;;;;;;4950736;28;20045;-88
2021/11/07 03:26:14;;;;;;;4.53;4.32;;;10.50;73.70;;;;;;4972563;28;20027;-88
2021/11/07 03:28:42;;;;;;;4.32;4.00;;;10.50;73.70;;;;;;4971542;28;20030;-88
2021/11/07 03:31:25;;;;;;;4.35;4.15;;;10.50;73.70;;;;;;4990341;28;20019;-89
2021/11/07 03:33:54;;;;;;;4.40;4.10;;;10.50;73.70;;;;;;4989917;28;20039;-88
2021/11/07 03:36:21;;;;;;;4.13;3.92;;;10.50;73.70;;;;;;4990386;28;20057;-89
2021/11/07 03:38:52;;;;;;;3.90;3.70;;;10.50;73.70;;;;;;4953472;28;20043;-88
2021/11/07 03:41:18;;;;;;;4.35;4.15;;;10.50;73.70;;;;;;4969300;28;20039;-88
2021/11/07 03:43:44;;;;;;;5.65;4.22;;;10.50;73.70;;;;;;4989467;28;20030;-88
2021/11/07 03:46:11;;;;;;;4.63;4.35;;;10.50;73.70;;;;;;4987730;28;20049;-88
2021/11/07 03:48:37;;;;;;;4.22;3.97;;;10.50;73.70;;;;;;4994839;28;20029;-87
2021/11/07 03:51:05;;;;;;;4.93;4.53;;;10.50;73.70;;;;;;4992914;28;20377;-88
2021/11/07 03:53:31;;;;;;;4.43;4.20;;;10.60;73.70;;;;;;4990862;28;20041;-88
2021/11/07 03:55:57;;;;;;;4.88;4.57;;;10.60;73.70;;;;;;4993167;28;20026;-89
2021/11/07 03:58:23;;;;;;;4.57;4.28;;;10.60;73.70;;;;;;4991926;28;20027;-88
2021/11/07 04:00:49;;;;;;;4.68;4.32;;;10.60;73.70;;;;;;4992153;28;20041;-88
2021/11/07 04:03:16;;;;;;;4.65;4.25;;;10.70;73.80;;;;;;4974328;28;20040;-88
2021/11/07 04:05:42;;;;;;;4.15;3.95;;;10.70;73.80;;;;;;4996715;28;20026;-88
2021/11/07 04:08:08;;;;;;;5.80;4.25;;;10.70;73.80;;;;;;4994805;28;20029;-88
2021/11/07 04:10:35;;;;;;;3.70;3.50;;;10.70;73.80;;;;;;4990864;28;20011;-88
2021/11/07 04:13:02;;;;;;;4.00;3.80;;;10.70;73.80;;;;;;4982374;28;20034;-87
2021/11/07 04:15:28;;;;;;;4.30;4.03;;;10.70;73.80;;;;;;4989011;28;20026;-86
2021/11/07 04:17:54;;;;;;;3.83;3.63;;;10.70;73.80;;;;;;4991837;28;20057;-86
2021/11/07 04:20:20;;;;;;;4.38;4.15;;;10.80;73.90;;;;;;4988930;28;20030;-89
2021/11/07 04:22:47;;;;;;;3.75;3.55;;;10.80;73.90;;;;;;4985098;28;20045;-89
2021/11/07 04:25:13;;;;;;;3.80;3.60;;;10.80;73.90;;;;;;4989393;28;20018;-88
2021/11/07 04:27:40;;;;;;;4.00;3.80;;;10.80;73.90;;;;;;4982816;28;20026;-88
2021/11/07 04:30:06;;;;;;;3.90;3.70;;;10.80;73.90;;;;;;4966151;28;20049;-88
2021/11/07 04:32:33;;;;;;;3.72;3.53;;;10.80;73.90;;;;;;4972552;28;20365;-88
2021/11/07 04:34:59;;;;;;;3.83;3.63;;;10.80;73.90;;;;;;4952994;28;20384;-89
2021/11/07 04:37:26;;;;;;;4.05;3.85;;;10.80;73.90;;;;;;4970219;28;20053;-89
2021/11/07 04:39:52;;;;;;;4.60;3.92;;;10.80;73.90;;;;;;4970848;28;20047;-88
2021/11/07 04:42:18;;;;;;;4.88;4.57;;;10.80;73.90;;;;;;4974354;28;20037;-89
2021/11/07 04:44:44;;;;;;;4.40;4.20;;;10.80;74.00;;;;;;4977124;28;20035;-89
2021/11/07 04:47:10;;;;;;;4.00;3.80;;;10.90;74.00;;;;;;4956785;28;20035;-88
2021/11/07 04:49:37;;;;;;;4.95;4.53;;;10.90;74.00;;;;;;4984442;28;20387;-88
2021/11/07 04:52:03;;;;;;;4.25;4.05;;;10.90;74.00;;;;;;4997327;28;20031;-87
2021/11/07 04:54:29;;;;;;;4.13;3.92;;;10.90;74.00;;;;;;4992988;28;20030;-88
2021/11/07 04:56:56;;;;;;;4.85;4.55;;;10.90;74.00;;;;;;4958989;28;20051;-88
2021/11/07 04:59:22;;;;;;;4.60;4.30;;;10.90;74.10;;;;;;4975075;28;20035;-88
2021/11/07 05:01:48;;;;;;;4.85;4.57;;;10.90;74.10;;;;;;4966391;28;20057;-87
2021/11/07 05:04:15;;;;;;;4.50;4.30;;;10.90;74.10;;;;;;4995237;28;20038;-88
2021/11/07 05:06:41;;;;;;;4.35;4.07;;;10.90;74.10;;;;;;4972474;28;20033;-89
2021/11/07 05:09:07;;;;;;;4.63;4.32;;;10.90;74.10;;;;;;4956301;28;20051;-88
2021/11/07 05:11:33;;;;;;;4.25;3.95;;;11.00;74.20;;;;;;4986159;28;20027;-88
2021/11/07 05:14:00;;;;;;;4.65;4.38;;;11.00;74.20;;;;;;4972278;28;20035;-88
2021/11/07 05:16:27;;;;;;;4.20;3.95;;;11.00;74.20;;;;;;4963788;28;20047;-88
2021/11/07 05:18:53;;;;;;;4.60;4.40;;;11.00;74.30;;;;;;4973143;28;20045;-89
2021/11/07 05:21:20;;;;;;;4.38;4.18;;;11.00;74.20;;;;;;4973228;28;20452;-88
2021/11/07 05:23:47;;;;;;;4.70;4.50;;;11.10;74.30;;;;;;4972541;28;20027;-88
2021/11/07 05:26:13;;;;;;;4.43;4.05;;;11.00;74.30;;;;;;4967197;28;20515;-89
2021/11/07 05:28:39;;;;;;;4.68;4.35;;;11.00;74.30;;;;;;4986018;28;20035;-88
2021/11/07 05:31:05;;;;;;;4.63;4.15;;;11.00;74.40;;;;;;4990649;28;20482;-88
2021/11/07 05:33:31;;;;;;;4.68;4.22;;;11.00;74.40;;;;;;4966631;28;20035;-88
2021/11/07 05:35:58;;;;;;;4.03;3.83;;;11.00;74.40;;;;;;4973821;28;20043;-87
2021/11/07 05:38:24;;;;;;;4.10;3.90;;;11.10;74.40;;;;;;4966413;28;20054;-88
2021/11/07 05:40:51;;;;;;;5.45;4.78;;;11.10;74.40;;;;;;4956692;28;20034;-89
2021/11/07 05:43:17;;;;;;;4.40;4.20;;;11.10;74.40;;;;;;4969289;28;20031;-88
2021/11/07 05:45:43;;;;;;;4.32;4.13;;;11.10;74.40;;;;;;4970415;28;20038;-88
2021/11/07 05:48:09;;;;;;;6.38;4.40;;;11.20;74.50;;;;;;4957158;28;20396;-89
2021/11/07 05:50:36;;;;;;;4.35;4.15;;;11.20;74.40;;;;;;4972602;28;20042;-89
2021/11/07 05:53:02;;;;;;;4.13;3.92;;;11.20;74.50;;;;;;4964146;28;20039;-88
2021/11/07 05:55:28;;;;;;;4.05;3.85;;;11.20;74.50;;;;;;4966740;28;20075;-88
2021/11/07 05:57:54;;;;;;;4.20;4.00;;;11.20;74.50;;;;;;4970916;28;20039;-88
2021/11/07 06:00:20;;;;;;;3.95;3.75;;;11.20;74.50;;;;;;4969967;28;20035;-88
2021/11/07 06:02:47;;;;;;;4.32;4.07;;;11.20;74.50;;;;;;4987673;28;20031;-87
2021/11/07 06:05:14;;;;;;;4.22;4.03;;;11.20;74.50;;;;;;4984713;28;20046;-88
2021/11/07 06:07:40;;;;;;;4.13;3.92;;;11.20;74.50;;;;;;4968480;28;20041;-87
2021/11/07 06:10:06;;;;;;;3.92;3.72;;;11.30;74.60;;;;;;4966229;28;20042;-87
2021/11/07 06:12:33;;;;;;;3.80;3.60;;;11.20;74.60;;;;;;4970789;28;20027;-90
2021/11/07 06:14:59;;;;;;;4.45;4.10;;;11.30;74.60;;;;;;4972194;28;20042;-87
2021/11/07 06:17:25;;;;;;;3.70;3.50;;;11.20;74.60;;;;;;4969332;28;20156;-87
2021/11/07 06:19:51;;;;;;;4.38;4.07;;;11.30;74.70;;;;;;4969016;28;20026;-87
2021/11/07 06:22:17;;;;;;;7.63;4.82;;;11.30;74.70;;;;;;4971559;28;20034;-87
2021/11/07 06:24:43;;;;;;;3.90;3.70;;;11.30;74.80;;;;;;4971403;28;20031;-89
2021/11/07 06:27:10;;;;;;;3.95;3.75;;;11.30;74.80;;;;;;4975234;28;20480;-88
2021/11/07 06:29:38;;;;;;;3.83;3.63;;;11.30;74.90;;;;;;4969730;28;20031;-86
2021/11/07 06:32:04;;;;;;;3.72;3.53;;;11.30;74.90;;;;;;4971290;28;20062;-90
2021/11/07 06:34:31;;;;;;;3.90;3.70;;;11.30;74.90;;;;;;4972581;28;20404;-86
2021/11/07 06:36:57;;;;;;;3.53;3.40;;;11.30;74.90;;;;;;4969705;28;20051;-87
2021/11/07 06:39:23;;;;;;;3.92;3.72;;;11.30;75.00;;;;;;4970263;28;20480;-87
2021/11/07 06:41:50;;;;;;;4.00;3.80;;;11.20;74.90;;;;;;4972670;28;20031;-86
2021/11/07 06:44:16;;;;;;;4.25;4.03;;;11.30;75.00;;;;;;4973451;28;20038;-87
2021/11/07 06:46:42;;;;;;;4.22;4.00;;;11.30;75.10;;;;;;4972924;28;20503;-87
2021/11/07 06:49:12;;;;;;;3.90;3.70;;;11.30;75.10;;;;;;4970771;28;20051;-87
2021/11/07 06:51:39;;;;;;;3.80;3.60;;;11.30;75.20;;;;;;4975266;28;20028;-87
2021/11/07 06:54:05;;;;;;;3.78;3.58;;;11.30;75.20;;;;;;4972288;28;20053;-87
2021/11/07 06:56:32;;;;;;;3.65;3.45;;;11.30;75.20;;;;;;4990036;28;20479;-86
2021/11/07 06:58:58;;;;;;;4.20;3.97;;;11.30;75.20;;;;;;4971894;28;20035;-85
2021/11/07 07:01:25;;;;;;;4.28;3.88;;;11.30;75.30;;;;;;4971090;28;20464;-86
2021/11/07 07:03:51;;;;;;;3.78;3.58;;;11.30;75.30;;;;;;4970451;28;20038;-88
2021/11/07 07:06:17;;;;;;;3.63;3.42;;;11.30;75.30;;;;;;4981409;28;20399;-86
2021/11/07 07:08:54;;;;;;;3.35;3.20;;;11.30;75.30;;;;;;4981390;28;20038;-87
2021/11/07 07:11:47;;;;;;;3.53;3.33;;;11.30;75.40;;;;;;4969998;28;20388;-87
2021/11/07 07:14:25;;;;;;;3.80;3.60;;;11.40;75.50;;;;;;4973652;28;20045;-91
2021/11/07 07:28:03;;;;;;;3.28;3.17;;;11.60;75.30;;;;;;4982063;28;20042;-94
2021/11/07 07:35:39;;;;;;;3.35;3.17;;;11.90;75.20;;;;;;4973807;28;20412;-90
2021/11/07 07:38:05;;;;;;;3.60;3.40;;;11.90;75.20;;;;;;4972178;28;20049;-89
2021/11/07 07:40:32;;;;;;;4.22;3.67;;;12.00;75.20;;;;;;4970079;28;20031;-89
2021/11/07 07:42:58;;;;;;;3.55;3.38;;;12.00;75.30;;;;;;4952912;28;20042;-86
2021/11/07 07:45:24;;;;;;;3.28;3.17;;;12.00;75.20;;;;;;4966466;28;20049;-88
2021/11/07 07:47:50;;;;;;;3.70;3.40;;;12.10;75.40;;;;;;4966916;28;20035;-86
2021/11/07 07:50:18;;;;;;;3.60;3.40;;;12.10;75.40;;;;;;4950390;28;20484;-85
2021/11/07 07:52:44;;;;;;;8.82;4.68;;;12.20;75.50;;;;;;4969794;28;20468;-83
2021/11/07 07:55:11;;;;;;;3.90;3.67;;;12.20;75.50;;;;;;4967754;28;20403;-86
2021/11/07 07:57:38;;;;;;;4.13;3.83;;;12.20;75.50;;;;;;4968194;28;20046;-90
2021/11/07 08:00:08;;;;;;;3.70;3.50;;;12.30;75.90;;;;;;4974991;28;20491;-92
2021/11/07 08:02:34;;;;;;;3.85;3.65;;;12.40;75.60;;;;;;4975950;28;20475;-86
2021/11/07 08:05:01;;;;;;;4.00;3.80;;;12.40;75.60;;;;;;4964481;28;20483;-87
2021/11/07 08:07:27;;;;;;;3.30;3.10;;;12.50;75.60;;;;;;4970790;28;20035;-88
2021/11/07 08:09:56;;;;;;;3.60;3.40;;;12.50;75.60;;;;;;4966627;28;20046;-88
2021/11/07 08:12:22;;;;;;;3.83;3.50;;;12.50;75.60;;;;;;4963236;28;20070;-89
2021/11/07 08:14:49;;;;;;;3.72;3.42;;;12.60;75.70;;;;;;4951546;28;20054;-89
2021/11/07 08:17:15;;;;;;;3.47;3.28;;;12.60;75.70;;;;;;4953664;28;20055;-90
2021/11/07 08:19:41;;;;;;;3.28;3.17;;;12.60;75.70;;;;;;4976124;28;20027;-94
2021/11/07 08:22:08;;;;;;;3.60;3.40;;;12.60;75.80;;;;;;4978903;28;20042;-87
2021/11/07 08:24:35;;;;;;;3.67;3.47;;;12.70;75.90;;;;;;4973632;28;20043;-90
2021/11/07 08:27:03;;;;;;;3.72;3.53;;;12.60;75.80;;;;;;4973713;28;20039;-88
2021/11/07 08:29:29;;;;;;;4.03;3.83;;;12.70;75.90;;;;;;4979783;28;20022;-94
2021/11/07 08:31:58;;;;;;;4.10;3.90;;;12.70;75.90;;;;;;4961411;28;20026;-93
2021/11/07 08:34:27;;;;;;;5.80;4.07;;;12.70;76.00;;;;;;4962366;28;20064;-88
2021/11/07 08:37:01;;;;;;;4.35;3.70;;;12.80;76.00;;;;;;4965297;28;20058;-88
2021/11/07 08:42:00;;;;;;;4.22;3.83;;;12.80;76.00;;;;;;4981991;28;20034;-91
2021/11/07 09:00:32;;;;;;;4.15;3.80;;;13.20;76.10;;;;;;5065431;23;20529;-93
2021/11/07 09:05:52;;;;;;;4.45;4.15;;;13.20;76.10;;;;;;4970349;28;20059;-91
2021/11/07 09:08:21;;;;;;;5.75;5.25;;;13.20;76.20;;;;;;4976507;28;20054;-85
2021/11/07 09:10:48;;;;;;;3.92;3.70;;;13.30;76.20;;;;;;4972697;28;20026;-87
2021/11/07 09:13:14;;;;;;;8.68;3.92;;;13.30;76.20;;;;;;4965217;28;20039;-91
2021/11/07 09:15:46;;;;;;;6.80;4.47;;;13.40;76.30;;;;;;4966402;28;20030;-90
2021/11/07 09:18:12;;;;;;;4.07;3.88;;;13.50;76.40;;;;;;4956168;28;20050;-89
2021/11/07 09:23:57;;;;;;;5.75;4.43;;;13.50;76.40;;;;;;4965267;28;20031;-88
2021/11/07 09:28:31;;;;;;;4.10;3.90;;;13.50;76.40;;;;;;4971289;28;20038;-86
2021/11/07 09:36:38;;;;;;;4.45;4.15;;;13.60;76.50;;;;;;4876353;29;20040;-89
2021/11/07 09:39:18;;;;;;;3.67;3.47;;;13.60;76.60;;;;;;4881523;29;20402;-91
2021/11/07 09:44:15;;;;;;;4.32;4.05;;;13.70;76.50;;;;;;4895335;29;20425;-92
2021/11/07 09:46:48;;;;;;;4.75;4.35;;;13.70;76.50;;;;;;4897058;29;20036;-92
2021/11/07 09:49:22;;;;;;;3.72;3.53;;;13.80;76.60;;;;;;4889432;29;20694;-87
2021/11/07 09:52:00;;;;;;;4.20;4.00;;;13.80;76.60;;;;;;4879853;29;20049;-90
2021/11/07 09:54:28;;;;;;;4.25;3.95;;;13.90;76.60;;;;;;4881169;29;20044;-91
2021/11/07 09:56:55;;;;;;;3.90;3.70;;;13.90;76.60;;;;;;4880823;29;20482;-90
2021/11/07 09:59:23;;;;;;;4.10;3.90;;;13.90;76.60;;;;;;4881669;29;20052;-92
2021/11/07 10:01:57;;;;;;;3.92;3.72;;;13.90;76.70;;;;;;4884992;29;20164;-93
2021/11/07 10:04:35;;;;;;;4.43;4.15;;;13.90;76.80;;;;;;4884390;29;20037;-92
2021/11/07 10:07:21;;;;;;;3.78;3.58;;;13.90;76.90;;;;;;4892576;29;20039;-89
2021/11/07 10:09:53;;;;;;;3.90;3.70;;;13.90;76.90;;;;;;4967700;28;20491;-94
2021/11/07 10:12:24;;;;;;;3.80;3.60;;;13.90;76.90;;;;;;4961308;28;20032;-94
2021/11/07 10:14:57;;;;;;;4.67;4.37;;;14.00;77.00;;;;;;4959422;28;20038;-92
2021/11/07 10:17:30;;;;;;;4.00;3.80;;;14.00;77.00;;;;;;4973408;28;20503;-93
2021/11/07 10:20:08;;;;;;;4.18;3.97;;;14.00;77.20;;;;;;4985727;28;20051;-93
2021/11/07 10:22:34;;;;;;;4.38;4.10;;;14.00;77.10;;;;;;4950160;28;20065;-93
2021/11/07 10:25:01;;;;;;;3.92;3.70;;;14.10;77.10;;;;;;4958832;28;20034;-93
2021/11/07 10:27:29;;;;;;;3.90;3.70;;;14.10;77.10;;;;;;4969885;28;20460;-93
2021/11/07 10:30:22;;;;;;;4.20;4.00;;;14.20;77.10;;;;;;4955221;28;20396;-94
2021/11/07 10:46:37;;;;;;;4.22;3.92;;;14.40;77.10;;;;;;4901366;29;20054;-93
2021/11/07 10:52:11;;;;;;;4.18;3.97;;;14.50;76.90;;;;;;4899750;29;20148;-92
2021/11/07 10:54:41;;;;;;;3.92;3.72;;;14.60;77.00;;;;;;4895744;29;20037;-93
2021/11/07 10:57:15;;;;;;;4.40;4.20;;;14.60;76.90;;;;;;4880053;29;20544;-94
2021/11/07 10:59:42;;;;;;;4.53;4.32;;;14.60;77.00;;;;;;4878663;29;22550;-92
2021/11/07 11:02:37;;;;;;;4.00;3.75;;;14.60;77.10;;;;;;4880375;29;20052;-90
2021/11/07 11:05:05;;;;;;;3.90;3.70;;;14.60;77.20;;;;;;4896858;29;20039;-89
2021/11/07 11:07:31;;;;;;;13.23;12.43;;;14.60;77.20;;;;;;4878403;29;20052;-90
2021/11/07 11:10:35;;;;;;;4.93;4.63;;;14.60;77.20;;;;;;4897131;29;20092;-86
2021/11/07 11:13:57;;;;;;;4.63;4.22;;;14.60;77.40;;;;;;4891724;29;20045;-90
2021/11/07 11:26:53;;;;;;;3.92;3.72;;;14.70;77.40;;;;;;4975296;28;20026;-91
2021/11/07 11:34:26;;;;;;;4.03;3.83;;;14.90;77.20;;;;;;4960918;28;20114;-90
2021/11/07 11:39:57;;;;;;;3.95;3.75;;;15.10;77.20;;;;;;4954445;28;20616;-91
2021/11/07 11:42:29;;;;;;;4.07;3.65;;;15.20;77.20;;;;;;4963690;28;20039;-92
2021/11/07 11:44:57;;;;;;;5.35;4.30;;;15.20;77.10;;;;;;4973214;28;20019;-92
2021/11/07 11:50:17;;;;;;;4.40;4.20;;;15.40;77.10;;;;;;4974751;28;20046;-91
2021/11/07 12:06:44;;;;;;;4.72;4.50;;;15.70;77.00;;;;;;4968324;28;20396;-87
2021/11/07 12:12:14;;;;;;;4.65;4.45;;;15.80;77.00;;;;;;4970091;28;20087;-89
2021/11/07 12:15:09;;;;;;;4.50;4.30;;;15.80;77.00;;;;;;4942849;29;20400;-91
2021/11/07 12:17:39;;;;;;;4.70;4.50;;;15.80;77.00;;;;;;4971772;28;20054;-91
2021/11/07 12:20:35;;;;;;;4.80;4.60;;;15.90;76.90;;;;;;4970947;28;20050;-92
2021/11/07 12:23:27;;;;;;;4.55;4.35;;;15.80;76.90;;;;;;4970958;28;20042;-90
2021/11/07 12:25:55;;;;;;;4.60;4.40;;;15.90;76.90;;;;;;4972146;28;20369;-91
2021/11/07 12:28:40;;;;;;;5.47;5.10;;;15.90;76.90;;;;;;4970880;28;20566;-90
2021/11/07 12:31:06;;;;;;;4.53;4.32;;;15.90;77.70;;;;;;4960148;28;20412;-90
2021/11/07 12:34:04;;;;;;;4.47;4.28;;;16.00;76.90;;;;;;4955947;28;20031;-91
2021/11/07 12:40:30;;;;;;;4.50;4.30;;;16.00;76.90;;;;;;4956805;28;20038;-91
2021/11/07 12:42:24;;;;;;;4.57;4.38;;;16.00;76.90;;;;;;4971834;28;20054;-91
2021/11/07 12:44:53;;;;;;;4.60;4.40;;;16.00;76.80;;;;;;4972252;28;20039;-90
2021/11/07 12:47:25;;;;;;;4.68;4.47;;;16.00;76.80;;;;;;4954267;28;20035;-91
2021/11/07 12:49:59;;;;;;;4.40;4.20;;;16.10;76.80;;;;;;4967478;28;20412;-91
2021/11/07 12:52:25;;;;;;;4.60;4.40;;;16.10;76.70;;;;;;4955386;28;20041;-91
2021/11/07 12:54:51;;;;;;;4.43;4.22;;;16.20;76.70;;;;;;4972173;28;20566;-91
2021/11/07 12:57:19;;;;;;;4.40;4.20;;;16.20;76.60;;;;;;4971036;28;20034;-91
2021/11/07 12:59:57;;;;;;;4.40;4.10;;;16.20;76.70;;;;;;4969700;28;20051;-89
2021/11/07 13:02:30;;;;;;;4.10;3.90;;;16.20;76.70;;;;;;4972557;28;20035;-89
2021/11/07 13:05:06;;;;;;;4.20;4.00;;;16.20;76.70;;;;;;4971689;28;20054;-88
2021/11/07 13:07:52;;;;;;;4.40;4.20;;;16.10;76.80;;;;;;4974050;28;20035;-90
2021/11/07 13:10:37;;;;;;;4.60;4.40;;;16.10;76.80;;;;;;4973060;28;20061;-88
2021/11/07 13:13:30;;;;;;;4.25;4.05;;;16.10;76.90;;;;;;4958206;28;20046;-87
2021/11/07 13:21:15;;;;;;;4.20;4.00;;;16.10;76.80;;;;;;4974505;28;20034;-89
2021/11/07 13:24:08;;;;;;;5.50;5.20;;;16.10;76.80;;;;;;4973536;28;20038;-90
2021/11/07 13:34:32;;;;;;;4.30;4.10;;;16.20;76.70;;;;;;4981864;28;20066;-88
2021/11/07 13:37:02;;;;;;;5.25;5.05;;;16.30;76.60;;;;;;4963359;28;20095;-88
2021/11/07 13:39:33;;;;;;;4.95;4.68;;;16.30;76.40;;;;;;4956321;28;20051;-88
2021/11/07 13:42:06;;;;;;;;;;;16.30;76.30;;;;;;4940485;28;20050;-87
2021/11/07 13:44:41;;;;;;;9.38;5.00;;;16.30;76.30;;;;;;4972650;28;19917;-89
2021/11/07 13:47:08;;;;;;;5.05;4.85;;;16.40;76.20;;;;;;4972524;28;20027;-88
2021/11/07 13:49:34;;;;;;;5.40;5.13;;;16.40;76.00;;;;;;4973127;28;20041;-89
2021/11/07 13:52:01;;;;;;;5.65;5.35;;;16.40;75.90;;;;;;4964178;28;20480;-90
2021/11/07 13:54:28;;;;;;;5.30;5.10;;;16.40;75.80;;;;;;4956436;28;20050;-89
2021/11/07 13:56:54;;;;;;;5.57;5.35;;;16.50;75.70;;;;;;4958917;28;20027;-89
2021/11/07 13:59:28;;;;;;;4.80;4.60;;;16.50;75.60;;;;;;4972915;28;20057;-89
2021/11/07 14:01:54;;;;;;;5.25;5.05;;;16.50;75.50;;;;;;4959799;28;20511;-89
2021/11/07 14:04:20;;;;;;;4.93;4.72;;;16.50;75.30;;;;;;4966220;28;20027;-90
2021/11/07 14:06:46;;;;;;;4.88;4.68;;;16.50;75.20;;;;;;4974195;28;20031;-88
2021/11/07 14:09:12;;;;;;;5.07;4.88;;;16.50;75.10;;;;;;4955134;28;20612;-88
2021/11/07 14:11:39;;;;;;;5.57;5.28;;;16.50;75.10;;;;;;4971396;28;20058;-90
2021/11/07 14:14:07;;;;;;;5.20;5.00;;;16.50;75.10;;;;;;4971475;28;20100;-89
2021/11/07 14:16:44;;;;;;;5.35;5.15;;;16.50;75.00;;;;;;4956093;28;20030;-81
2021/11/07 14:19:11;;;;;;;5.65;5.35;;;16.50;74.90;;;;;;4972941;28;20054;-76
2021/11/07 14:21:42;;;;;;;5.13;4.82;;;16.40;74.70;;;;;;4971881;28;20027;-76
2021/11/07 14:24:40;;;;;;;4.97;4.78;;;16.40;74.80;;;;;;4958957;28;20046;-80
2021/11/07 14:27:16;;;;;;;5.10;4.90;;;16.30;74.70;;;;;;4960172;28;20392;-80
2021/11/07 14:29:52;;;;;;;4.72;4.53;;;16.20;74.80;;;;;;4971306;28;20037;-80
2021/11/07 14:35:23;;;;;;;5.35;5.05;;;16.00;75.00;;;;;;4973311;28;20034;-79
2021/11/07 14:37:55;;;;;;;4.68;4.38;;;15.90;75.00;;;;;;4960207;28;20035;-79
2021/11/07 14:40:30;;;;;;;4.60;4.40;;;15.90;74.90;;;;;;4958724;28;20190;-80
2021/11/07 14:51:56;;;;;;;4.82;4.63;;;15.80;74.70;;;;;;4958779;28;20179;-79
2021/11/07 14:59:44;;;;;;;5.22;5.00;;;15.80;74.60;;;;;;4957653;28;20454;-81
2021/11/07 15:03:08;;;;;;;6.75;5.63;;;15.80;74.40;;;;;;4962672;28;20039;-78
2021/11/07 15:08:05;;;;;;;7.22;6.63;;;15.80;73.90;;;;;;4944981;28;20518;-79
2021/11/07 15:13:28;;;;;;;5.88;5.57;;;15.70;73.70;;;;;;4955125;28;20042;-76
2021/11/07 15:19:14;;;;;;;8.65;5.10;;;15.70;73.80;;;;;;4974409;28;20045;-84
2021/11/07 15:21:54;;;;;;;9.88;5.10;;;15.60;73.70;;;;;;4963684;28;20049;-86
2021/11/07 15:24:26;;;;;;;5.50;5.20;;;15.60;73.50;;;;;;4971694;28;20035;-79
2021/11/07 15:27:00;;;;;;;5.50;5.30;;;15.50;73.50;;;;;;4969424;28;20022;-79
2021/11/07 15:29:34;;;;;;;5.43;5.13;;;15.50;73.50;;;;;;4966139;28;20408;-85
2021/11/07 15:32:05;;;;;;;5.45;5.25;;;15.40;73.40;;;;;;4968497;28;20046;-81
2021/11/07 15:34:34;;;;;;;5.60;5.20;;;15.40;73.40;;;;;;4970353;28;20027;-80
2021/11/07 15:37:02;;;;;;;5.32;5.13;;;15.30;73.30;;;;;;4966903;28;20027;-81
2021/11/07 15:39:32;;;;;;;4.93;4.72;;;15.30;73.20;;;;;;4969647;28;20043;-79
2021/11/07 15:42:09;;;;;;;5.20;5.00;;;15.20;73.00;;;;;;4971086;28;20638;-79
2021/11/07 15:44:43;;;;;;;5.07;4.88;;;15.20;72.90;;;;;;4971939;28;20396;-80
2021/11/07 15:47:10;;;;;;;5.30;5.00;;;15.10;72.70;;;;;;4957408;28;20039;-81
2021/11/07 15:49:39;;;;;;;5.30;5.00;;;15.10;72.70;;;;;;4963864;28;20487;-79
2021/11/07 15:52:14;;;;;;;6.07;5.68;;;15.00;72.60;;;;;;4968678;28;20039;-80
2021/11/07 15:54:48;;;;;;;5.18;4.97;;;15.00;72.60;;;;;;4970348;28;20042;-79
2021/11/07 15:57:33;;;;;;;5.75;5.45;;;15.00;72.60;;;;;;4968559;28;20038;-79
2021/11/07 16:08:03;;;;;;;5.40;5.13;;;14.70;72.50;;;;;;4909117;29;20036;-80
2021/11/07 16:10:42;;;;;;;6.10;5.70;;;14.70;72.50;;;;;;4909612;29;20044;-80